Time;durP1;ratioP1;P1;durP2;ratioP2;P2;SDS_P1;SDS_P2;PMS_P1;PMS_P2;Temp;Humidity;BMP_temperature;BMP_pressure;BME280_temperature;BME280_humidity;BME280_pressure;Samples;Min_cycle;Max_cycle;Signal;HPM_P1;HPM_P2
2023/06/04 00:00:38;;;;;;;0.60;0.60;;;;;;;18.73;100.00;98573.44;5092795;28;20474;-45
2023/06/04 00:03:03;;;;;;;0.55;0.55;;;;;;;18.92;100.00;98565.88;5088614;28;20407;-45
2023/06/04 00:05:29;;;;;;;1.17;0.95;;;;;;;18.95;100.00;98563.53;5083725;28;20119;-45
2023/06/04 00:07:55;;;;;;;0.17;0.17;;;;;;;19.00;100.00;98565.41;5092696;28;20088;-45
2023/06/04 00:10:20;;;;;;;0.10;0.10;;;;;;;19.00;100.00;98553.97;5073965;28;20032;-45
2023/06/04 00:12:46;;;;;;;0.10;0.10;;;;;;;19.10;100.00;98554.00;5092551;28;20375;-45
2023/06/04 00:15:14;;;;;;;0.52;0.52;;;;;;;19.10;100.00;98554.81;5092505;28;20383;-45
2023/06/04 00:17:40;;;;;;;0.52;0.52;;;;;;;19.21;100.00;98552.19;5092366;28;20031;-45
2023/06/04 00:20:06;;;;;;;0.52;0.52;;;;;;;19.27;100.00;98541.28;5088604;28;20032;-46
2023/06/04 00:22:32;;;;;;;0.38;0.38;;;;;;;19.21;100.00;98531.69;5083832;28;20068;-45
2023/06/04 00:24:57;;;;;;;0.75;0.75;;;;;;;19.09;100.00;98536.44;5108046;28;20106;-45
2023/06/04 00:27:23;;;;;;;3.25;1.00;;;;;;;19.00;100.00;98528.16;5108011;28;20036;-45
2023/06/04 00:29:49;;;;;;;0.00;0.00;;;;;;;19.29;100.00;98525.06;5108041;28;20024;-45
2023/06/04 00:32:14;;;;;;;0.00;0.00;;;;;;;19.59;100.00;98527.03;5107898;28;20031;-46
2023/06/04 00:34:40;;;;;;;0.20;0.20;;;;;;;19.74;100.00;98526.31;5084689;28;20139;-45
2023/06/04 00:37:06;;;;;;;6.13;2.08;;;;;;;19.70;100.00;98523.31;5107801;28;20103;-45
2023/06/04 00:39:34;;;;;;;2.28;1.23;;;;;;;19.65;100.00;98519.84;5083581;28;20062;-46
2023/06/04 00:42:00;;;;;;;0.40;0.40;;;;;;;19.65;100.00;98523.31;5092093;28;20108;-45
2023/06/04 00:44:26;;;;;;;11.60;1.65;;;;;;;19.88;100.00;98522.06;5082697;28;20024;-45
2023/06/04 00:46:53;;;;;;;0.50;0.50;;;;;;;19.84;100.00;98525.50;5107658;28;20070;-45
2023/06/04 00:49:20;;;;;;;0.75;0.75;;;;;;;19.83;100.00;98530.03;5092038;28;20061;-45
2023/06/04 00:51:45;;;;;;;0.43;0.43;;;;;;;19.87;100.00;98531.09;5068621;28;20024;-45
2023/06/04 00:54:12;;;;;;;0.25;0.25;;;;;;;19.52;100.00;98529.94;5090805;28;20531;-45
2023/06/04 00:56:39;;;;;;;1.02;0.93;;;;;;;19.45;100.00;98523.25;5084181;28;20020;-45
2023/06/04 00:59:06;;;;;;;4.10;3.80;;;;;;;19.20;100.00;98529.31;5092135;28;20127;-45
2023/06/04 01:01:45;;;;;;;2.90;2.42;;;;;;;19.24;100.00;98528.53;5091213;28;20099;-45
2023/06/04 01:04:18;;;;;;;3.05;2.80;;;;;;;19.18;100.00;98528.78;5089126;28;20047;-45
2023/06/04 01:06:48;;;;;;;1.58;1.42;;;;;;;19.22;100.00;98530.66;5084976;28;20031;-45
2023/06/04 01:09:14;;;;;;;0.98;0.98;;;;;;;19.41;100.00;98530.97;5090492;28;20027;-45
2023/06/04 01:11:40;;;;;;;0.38;0.38;;;;;;;19.50;100.00;98534.72;5084346;28;20028;-45
2023/06/04 01:14:08;;;;;;;1.98;0.90;;;;;;;19.35;100.00;98529.34;5107394;28;20024;-45
2023/06/04 01:16:49;;;;;;;0.00;0.00;;;;;;;19.29;100.00;98531.19;5091585;28;20020;-45
2023/06/04 01:19:40;;;;;;;0.30;0.30;;;;;;;19.32;100.00;98530.69;5089116;28;20089;-45
2023/06/04 01:22:20;;;;;;;0.10;0.10;;;;;;;19.31;100.00;98537.06;5091608;28;20020;-45
2023/06/04 01:24:56;;;;;;;0.22;0.22;;;;;;;19.26;100.00;98530.94;5091636;28;20406;-45
2023/06/04 01:27:23;;;;;;;0.00;0.00;;;;;;;19.32;100.00;98533.34;5090476;28;20047;-45
2023/06/04 01:29:49;;;;;;;0.00;0.00;;;;;;;19.30;100.00;98535.47;5085556;28;20501;-45
2023/06/04 01:32:17;;;;;;;1.35;0.60;;;;;;;19.29;100.00;98535.72;5107251;28;20039;-45
2023/06/04 01:34:46;;;;;;;0.00;0.00;;;;;;;19.35;100.00;98532.81;5087536;28;20094;-45
2023/06/04 01:37:13;;;;;;;0.10;0.10;;;;;;;19.33;100.00;98537.59;5089871;28;20022;-45
2023/06/04 01:39:38;;;;;;;0.00;0.00;;;;;;;19.41;100.00;98540.81;5091604;28;20104;-45
2023/06/04 01:42:04;;;;;;;0.00;0.00;;;;;;;19.57;100.00;98534.47;5070746;28;20064;-45
2023/06/04 01:44:30;;;;;;;6.82;1.65;;;;;;;19.63;100.00;98536.09;5069955;28;20035;-45
2023/06/04 01:46:56;;;;;;;0.00;0.00;;;;;;;19.63;100.00;98540.63;5087639;28;20103;-45
2023/06/04 01:49:21;;;;;;;0.00;0.00;;;;;;;19.53;100.00;98541.38;5091488;28;20077;-45
2023/06/04 01:51:47;;;;;;;0.28;0.17;;;;;;;19.51;100.00;98541.63;5070044;28;20432;-45
2023/06/04 01:54:13;;;;;;;0.00;0.00;;;;;;;19.47;100.00;98547.75;5090176;28;20040;-45
2023/06/04 01:56:38;;;;;;;0.00;0.00;;;;;;;19.50;100.00;98541.91;5091300;28;20028;-45
2023/06/04 01:59:04;;;;;;;0.65;0.43;;;;;;;19.44;100.00;98542.97;5091351;28;20024;-45
2023/06/04 02:01:30;;;;;;;0.20;0.20;;;;;;;19.49;100.00;98545.63;5069822;28;20020;-45
2023/06/04 02:03:55;;;;;;;0.22;0.22;;;;;;;19.54;100.00;98541.13;5069762;28;20402;-45
2023/06/04 02:06:21;;;;;;;0.20;0.20;;;;;;;19.59;100.00;98548.31;5089713;28;20028;-45
2023/06/04 02:08:46;;;;;;;0.13;0.13;;;;;;;19.57;100.00;98550.44;5069750;28;20032;-45
2023/06/04 02:11:12;;;;;;;0.30;0.30;;;;;;;19.58;100.00;98554.72;5089631;28;20438;-45
2023/06/04 02:13:38;;;;;;;0.10;0.10;;;;;;;19.52;100.00;98548.56;5072471;28;20538;-45
2023/06/04 02:16:04;;;;;;;2.38;0.43;;;;;;;19.43;100.00;98552.00;5091913;28;20168;-45
2023/06/04 02:18:30;;;;;;;0.00;0.00;;;;;;;19.38;100.00;98560.78;5090093;28;20131;-45
2023/06/04 02:20:57;;;;;;;0.00;0.00;;;;;;;19.36;100.00;98558.38;5073169;28;20024;-45
2023/06/04 02:23:22;;;;;;;0.00;0.00;;;;;;;19.45;100.00;98556.00;5076462;28;20405;-45
2023/06/04 02:25:49;;;;;;;0.00;0.00;;;;;;;19.56;100.00;98562.16;5094646;28;20021;-45
2023/06/04 02:28:15;;;;;;;0.25;0.25;;;;;;;19.53;100.00;98562.69;5094855;28;20566;-45
2023/06/04 02:30:41;;;;;;;0.47;0.47;;;;;;;19.40;100.00;98563.97;5089908;28;20031;-45
2023/06/04 02:33:09;;;;;;;0.00;0.00;;;;;;;19.35;100.00;98567.41;5092160;28;20030;-45
2023/06/04 02:35:35;;;;;;;0.00;0.00;;;;;;;19.47;100.00;98569.06;5076092;28;20051;-45
2023/06/04 02:38:01;;;;;;;0.00;0.00;;;;;;;19.46;100.00;98578.09;5059646;28;20040;-45
2023/06/04 02:40:27;;;;;;;0.00;0.00;;;;;;;19.41;100.00;98576.22;5059496;28;20512;-45
2023/06/04 02:42:54;;;;;;;0.00;0.00;;;;;;;19.39;100.00;98577.53;5059740;28;20030;-45
2023/06/04 02:45:20;;;;;;;0.28;0.28;;;;;;;19.14;100.00;98579.81;5094287;28;20508;-45
2023/06/04 02:47:46;;;;;;;0.22;0.20;;;;;;;18.96;100.00;98578.41;5094226;28;20031;-45
2023/06/04 02:50:15;;;;;;;0.00;0.00;;;;;;;19.00;100.00;98580.56;5076005;28;20073;-45
2023/06/04 02:52:40;;;;;;;0.08;0.08;;;;;;;18.99;100.00;98581.59;5094153;28;20020;-45
2023/06/04 02:55:07;;;;;;;0.65;0.30;;;;;;;19.02;100.00;98581.91;5094064;28;20111;-45
2023/06/04 02:57:33;;;;;;;1.08;0.88;;;;;;;18.93;100.00;98586.91;5093988;28;20024;-45
2023/06/04 02:59:59;;;;;;;0.03;0.03;;;;;;;18.74;100.00;98575.06;5093997;28;20551;-45
2023/06/04 03:02:25;;;;;;;0.10;0.10;;;;;;;18.63;100.00;98578.69;5093838;28;20069;-45
2023/06/04 03:04:52;;;;;;;0.20;0.20;;;;;;;18.51;100.00;98573.56;5075923;28;20067;-45
2023/06/04 03:07:20;;;;;;;0.03;0.03;;;;;;;18.42;100.00;98575.09;5075685;28;20498;-45
2023/06/04 03:09:49;;;;;;;0.47;0.47;;;;;;;18.47;100.00;98572.47;5093703;28;20024;-45
2023/06/04 03:12:15;;;;;;;0.20;0.20;;;;;;;18.61;100.00;98567.50;5093631;28;20490;-45
2023/06/04 03:14:41;;;;;;;0.00;0.00;;;;;;;18.75;100.00;98566.84;5075569;28;20040;-45
2023/06/04 03:17:13;;;;;;;0.00;0.00;;;;;;;18.84;100.00;98564.50;5093580;28;20512;-45
2023/06/04 03:19:40;;;;;;;0.70;0.70;;;;;;;19.03;100.00;98570.19;5092395;28;20024;-45
2023/06/04 03:22:06;;;;;;;2.45;2.28;;;;;;;19.10;100.00;98564.66;5093357;28;20027;-45
2023/06/04 03:24:37;;;;;;;2.63;2.42;;;;;;;19.06;100.00;98568.88;5092808;28;20024;-45
2023/06/04 03:27:04;;;;;;;2.00;1.90;;;;;;;19.01;100.00;98571.50;5093387;28;20043;-46
2023/06/04 03:29:30;;;;;;;2.67;2.00;;;;;;;19.02;100.00;98568.59;5093364;28;20028;-45
2023/06/04 03:31:56;;;;;;;0.45;0.45;;;;;;;19.02;100.00;98578.44;5075169;28;20118;-45
2023/06/04 03:34:25;;;;;;;0.40;0.40;;;;;;;18.94;100.00;98580.53;5074859;28;20096;-47
2023/06/04 03:36:54;;;;;;;1.33;0.55;;;;;;;19.02;100.00;98576.56;5087291;28;20020;-46
2023/06/04 03:39:22;;;;;;;0.17;0.17;;;;;;;19.04;100.00;98577.13;5112025;28;20050;-45
2023/06/04 03:41:48;;;;;;;0.52;0.52;;;;;;;18.99;100.00;98574.41;5113487;28;20023;-45
2023/06/04 03:44:17;;;;;;;0.85;0.85;;;;;;;19.02;100.00;98575.78;5095209;28;20028;-45
2023/06/04 03:46:44;;;;;;;2.42;0.90;;;;;;;18.89;100.00;98577.81;5113477;28;20392;-45
2023/06/04 03:49:11;;;;;;;0.22;0.22;;;;;;;18.88;100.00;98575.44;5113392;28;20502;-45
2023/06/04 03:51:41;;;;;;;0.20;0.20;;;;;;;18.88;100.00;98572.78;5113336;28;20024;-45
2023/06/04 03:54:06;;;;;;;0.55;0.55;;;;;;;18.73;100.00;98578.75;5094950;28;20019;-45
2023/06/04 03:56:32;;;;;;;0.00;0.00;;;;;;;18.46;100.00;98582.28;5113146;28;20030;-45
2023/06/04 03:58:58;;;;;;;0.00;0.00;;;;;;;18.41;100.00;98582.28;5113403;28;20031;-45
2023/06/04 04:01:24;;;;;;;2.38;2.00;;;;;;;18.65;100.00;98584.56;5113144;28;20045;-45
2023/06/04 04:03:51;;;;;;;0.20;0.20;;;;;;;18.53;100.00;98584.72;5113063;28;20023;-45
2023/06/04 04:06:17;;;;;;;0.00;0.00;;;;;;;18.56;100.00;98579.72;5094809;28;20023;-45
2023/06/04 04:08:43;;;;;;;0.20;0.20;;;;;;;18.64;100.00;98582.97;5113068;28;20020;-45
2023/06/04 04:11:10;;;;;;;0.30;0.22;;;;;;;18.73;100.00;98589.38;5077813;28;20023;-45
2023/06/04 04:13:36;;;;;;;0.00;0.00;;;;;;;18.71;100.00;98587.00;5111693;28;20489;-45
2023/06/04 04:16:02;;;;;;;0.85;0.85;;;;;;;18.66;100.00;98586.16;5112840;28;20022;-45
2023/06/04 04:18:27;;;;;;;0.30;0.30;;;;;;;18.58;100.00;98581.31;5094547;28;20032;-45
2023/06/04 04:20:53;;;;;;;0.00;0.00;;;;;;;18.54;100.00;98583.69;5111496;28;20026;-45
2023/06/04 04:23:19;;;;;;;4.75;0.80;;;;;;;18.44;100.00;98584.41;5111471;28;20024;-45
2023/06/04 04:25:45;;;;;;;5.28;0.65;;;;;;;18.38;100.00;98580.09;5112616;28;20528;-45
2023/06/04 04:28:11;;;;;;;0.45;0.38;;;;;;;18.44;100.00;98579.09;5111423;28;20473;-45
2023/06/04 04:30:37;;;;;;;0.25;0.20;;;;;;;18.41;100.00;98579.63;5112682;28;20030;-45
2023/06/04 04:33:04;;;;;;;0.98;0.85;;;;;;;18.44;100.00;98579.09;5077467;28;20118;-45
2023/06/04 04:35:32;;;;;;;0.40;0.28;;;;;;;18.50;100.00;98583.38;5110211;28;20043;-45
2023/06/04 04:38:04;;;;;;;1.17;1.15;;;;;;;18.41;100.00;98592.09;5112052;28;20528;-45
2023/06/04 04:40:30;;;;;;;0.00;0.00;;;;;;;18.38;100.00;98587.28;5111240;28;20023;-45
2023/06/04 04:42:56;;;;;;;0.05;0.05;;;;;;;18.31;100.00;98592.78;5111181;28;20035;-45
2023/06/04 04:45:22;;;;;;;0.20;0.20;;;;;;;18.22;100.00;98594.31;5111125;28;20027;-45
2023/06/04 04:47:48;;;;;;;0.55;0.55;;;;;;;18.24;100.00;98590.34;5077279;28;20047;-45
2023/06/04 04:50:13;;;;;;;0.28;0.28;;;;;;;18.24;100.00;98587.69;5094113;28;20382;-45
2023/06/04 04:52:39;;;;;;;0.00;0.00;;;;;;;18.23;100.00;98601.22;5111311;28;20024;-45
2023/06/04 04:55:05;;;;;;;0.00;0.00;;;;;;;18.30;100.00;98593.88;5110945;28;20489;-45
2023/06/04 04:57:31;;;;;;;0.00;0.00;;;;;;;18.50;100.00;98587.91;5110927;28;20065;-45
2023/06/04 04:59:56;;;;;;;0.00;0.00;;;;;;;18.73;100.00;98592.03;5112292;28;20016;-45
2023/06/04 05:02:22;;;;;;;0.28;0.28;;;;;;;18.84;100.00;98596.41;5112249;28;20024;-45
2023/06/04 05:04:48;;;;;;;0.00;0.00;;;;;;;18.97;100.00;98592.50;5112246;28;20026;-45
2023/06/04 05:07:13;;;;;;;0.13;0.13;;;;;;;19.14;100.00;98601.13;5110814;28;20027;-45
2023/06/04 05:09:40;;;;;;;0.25;0.10;;;;;;;19.26;100.00;98603.56;5112200;28;20016;-45
2023/06/04 05:12:06;;;;;;;0.30;0.30;;;;;;;19.36;100.00;98610.81;5093806;28;20481;-45
2023/06/04 05:14:34;;;;;;;0.10;0.10;;;;;;;19.66;100.00;98604.78;5093839;28;20060;-45
2023/06/04 05:17:00;;;;;;;0.00;0.00;;;;;;;20.46;100.00;98604.38;5111995;28;20034;-45
2023/06/04 05:19:26;;;;;;;0.00;0.00;;;;;;;21.56;100.00;98606.63;5093804;28;20031;-45
2023/06/04 05:21:52;;;;;;;0.10;0.10;;;;;;;22.58;100.00;98599.81;5110694;28;20028;-45
2023/06/04 05:24:17;;;;;;;0.00;0.00;;;;;;;23.11;100.00;98592.63;5112060;28;20048;-46
2023/06/04 05:26:43;;;;;;;0.20;0.20;;;;;;;23.14;100.00;98596.63;5093775;28;20093;-45
2023/06/04 05:29:09;;;;;;;9.00;6.07;;;;;;;22.77;99.35;98597.25;5111973;28;20045;-46
2023/06/04 05:31:34;;;;;;;13.75;4.60;;;;;;;23.07;100.00;98596.94;5111948;28;20059;-45
2023/06/04 05:34:01;;;;;;;4.15;3.45;;;;;;;24.59;96.67;98597.06;5110599;28;20073;-46
2023/06/04 05:36:27;;;;;;;9.32;4.88;;;;;;;26.52;88.89;98587.09;5110271;28;20043;-46
2023/06/04 05:38:59;;;;;;;7.85;3.70;;;;;;;27.60;80.52;98585.00;5111857;28;20028;-46
2023/06/04 05:41:27;;;;;;;9.85;5.15;;;;;;;28.55;76.99;98585.34;5093576;28;20553;-46
2023/06/04 05:43:53;;;;;;;8.05;3.58;;;;;;;29.52;75.75;98584.63;5112018;28;20023;-46
2023/06/04 05:46:19;;;;;;;13.43;5.18;;;;;;;30.60;72.39;98580.34;5111803;28;20034;-46
2023/06/04 05:48:45;;;;;;;11.00;3.90;;;;;;;31.05;69.47;98579.53;5096392;28;20032;-46
2023/06/04 05:51:13;;;;;;;17.05;4.47;;;;;;;29.96;66.92;98577.00;5115617;28;20012;-46
2023/06/04 05:53:39;;;;;;;16.92;4.78;;;;;;;29.15;69.15;98586.25;5115824;28;20110;-46
2023/06/04 05:56:05;;;;;;;14.25;4.07;;;;;;;29.21;70.63;98585.72;5097098;28;20038;-46
2023/06/04 05:58:34;;;;;;;8.95;3.72;;;;;;;30.21;70.21;98583.28;5114292;28;20031;-46
2023/06/04 06:01:00;;;;;;;10.52;3.70;;;;;;;30.19;67.30;98590.16;5115691;28;20099;-46
2023/06/04 06:03:27;;;;;;;14.60;3.67;;;;;;;29.34;68.36;98594.75;5097311;28;20162;-46
2023/06/04 06:05:54;;;;;;;14.45;4.30;;;;;;;28.21;67.79;98608.53;5115291;28;20058;-46
2023/06/04 06:08:21;;;;;;;9.75;3.53;;;;;;;27.71;73.21;98604.41;5115444;28;20034;-46
2023/06/04 06:10:46;;;;;;;17.48;4.40;;;;;;;28.52;72.63;98596.78;5114002;28;20508;-46
2023/06/04 06:13:12;;;;;;;15.73;4.10;;;;;;;29.94;69.33;98598.19;5115307;28;20026;-46
2023/06/04 06:15:38;;;;;;;10.50;3.58;;;;;;;31.92;64.67;98588.34;5096965;28;20023;-46
2023/06/04 06:18:04;;;;;;;13.77;4.50;;;;;;;33.37;60.44;98592.47;5096790;28;20512;-46
2023/06/04 06:20:30;;;;;;;5.22;3.22;;;;;;;34.58;54.88;98584.38;5113837;28;20024;-46
2023/06/04 06:22:56;;;;;;;7.05;3.20;;;;;;;35.10;52.73;98587.59;5096782;28;20462;-46
2023/06/04 06:25:21;;;;;;;11.70;3.90;;;;;;;34.17;53.70;98594.94;5115045;28;20027;-46
2023/06/04 06:27:48;;;;;;;9.32;2.92;;;;;;;32.58;55.84;98606.09;5113735;28;20066;-46
2023/06/04 06:30:14;;;;;;;10.77;3.30;;;;;;;31.83;58.34;98597.44;5114956;28;20515;-46
2023/06/04 06:32:40;;;;;;;8.52;3.30;;;;;;;32.51;57.07;98598.50;5113592;28;20044;-46
2023/06/04 06:35:07;;;;;;;7.43;3.15;;;;;;;32.24;54.63;98594.69;5092948;28;20036;-46
2023/06/04 06:37:33;;;;;;;7.03;3.08;;;;;;;30.84;57.05;98604.00;5094397;28;20056;-46
2023/06/04 06:39:59;;;;;;;9.63;3.38;;;;;;;29.43;60.91;98608.97;5089601;28;20066;-46
2023/06/04 06:42:25;;;;;;;15.52;4.30;;;;;;;28.39;63.63;98604.72;5094603;28;20559;-46
2023/06/04 06:44:50;;;;;;;6.00;3.35;;;;;;;27.65;66.30;98617.22;5094516;28;20493;-46
2023/06/04 06:47:16;;;;;;;8.85;4.00;;;;;;;27.04;68.92;98622.41;5091821;28;20050;-46
2023/06/04 06:49:42;;;;;;;8.80;4.53;;;;;;;26.62;71.38;98621.06;5086997;28;20088;-46
2023/06/04 06:52:09;;;;;;;12.30;4.10;;;;;;;26.17;69.93;98618.38;5094124;28;20051;-46
2023/06/04 06:54:35;;;;;;;10.48;3.22;;;;;;;25.66;70.23;98618.38;5086219;28;20509;-46
2023/06/04 06:57:00;;;;;;;9.95;3.45;;;;;;;25.24;70.88;98619.53;5094006;28;20103;-46
2023/06/04 06:59:27;;;;;;;6.85;3.83;;;;;;;25.27;74.23;98619.72;5083625;28;20406;-46
2023/06/04 07:01:53;;;;;;;10.50;3.65;;;;;;;25.40;71.19;98617.34;5093968;28;20016;-46
2023/06/04 07:04:18;;;;;;;16.08;4.07;;;;;;;25.34;73.41;98615.84;5093899;28;20028;-46
2023/06/04 07:06:44;;;;;;;7.05;3.15;;;;;;;25.60;70.97;98618.81;5093840;28;20499;-46
2023/06/04 07:09:10;;;;;;;13.27;5.55;;;;;;;25.81;70.24;98621.84;5093731;28;20433;-46
2023/06/04 07:11:36;;;;;;;10.02;3.20;;;;;;;25.97;68.76;98628.50;5093713;28;20021;-46
2023/06/04 07:14:04;;;;;;;8.25;3.08;;;;;;;26.19;69.61;98626.94;5093753;28;20371;-46
2023/06/04 07:16:30;;;;;;;10.50;3.67;;;;;;;26.59;69.68;98627.09;5093592;28;20078;-45
2023/06/04 07:18:55;;;;;;;16.55;3.22;;;;;;;27.05;66.74;98626.69;5093488;28;20024;-46
2023/06/04 07:21:23;;;;;;;9.68;3.13;;;;;;;27.31;66.04;98620.66;5093792;28;20104;-46
2023/06/04 07:23:52;;;;;;;9.60;3.60;;;;;;;27.90;65.45;98617.59;5093472;28;20047;-46
2023/06/04 07:26:18;;;;;;;8.48;3.25;;;;;;;28.40;57.48;98619.00;5093467;28;20020;-46
2023/06/04 07:28:44;;;;;;;11.73;3.20;;;;;;;28.03;58.55;98624.75;5093325;28;20414;-46
2023/06/04 07:31:10;;;;;;;9.40;3.17;;;;;;;28.14;63.42;98621.75;5093356;28;20048;-46
2023/06/04 07:33:42;;;;;;;14.40;3.83;;;;;;;28.80;60.68;98622.28;5085240;28;20137;-46
2023/06/04 07:36:11;;;;;;;9.13;4.30;;;;;;;28.92;59.43;98620.81;5089162;28;20176;-46
2023/06/04 07:38:36;;;;;;;6.07;3.05;;;;;;;29.35;58.03;98617.16;5093400;28;20032;-46
2023/06/04 07:41:02;;;;;;;7.40;2.85;;;;;;;29.59;56.18;98613.84;5093205;28;20027;-46
2023/06/04 07:43:27;;;;;;;7.20;3.05;;;;;;;29.72;57.13;98614.72;5071579;28;20028;-46
2023/06/04 07:45:53;;;;;;;8.07;2.88;;;;;;;29.81;57.23;98610.06;5088783;28;20039;-46
2023/06/04 07:48:19;;;;;;;8.10;3.17;;;;;;;30.48;57.61;98612.84;5093070;28;20054;-46
2023/06/04 07:50:45;;;;;;;9.68;3.47;;;;;;;31.52;53.73;98599.97;5093015;28;20111;-46
2023/06/04 07:53:10;;;;;;;5.07;2.58;;;;;;;33.20;53.66;98604.53;5073292;28;20031;-46
2023/06/04 07:55:36;;;;;;;2.97;2.10;;;;;;;35.23;51.43;98599.09;5071315;28;20111;-46
2023/06/04 07:58:02;;;;;;;8.18;2.72;;;;;;;35.83;45.52;98601.13;5089681;28;20095;-46
2023/06/04 08:00:27;;;;;;;5.30;2.75;;;;;;;35.39;47.13;98597.78;5092847;28;20035;-46
2023/06/04 08:02:53;;;;;;;4.68;2.40;;;;;;;35.27;49.60;98597.22;5092792;28;20043;-47
2023/06/04 08:05:19;;;;;;;5.38;3.22;;;;;;;35.51;49.63;98596.00;5092713;28;20531;-46
2023/06/04 08:07:47;;;;;;;5.90;2.72;;;;;;;36.16;47.49;98597.59;5071470;28;20036;-44
2023/06/04 08:10:13;;;;;;;5.47;2.65;;;;;;;37.11;46.44;98592.63;5090852;28;20063;-44
2023/06/04 08:12:38;;;;;;;9.45;3.15;;;;;;;37.28;45.76;98591.19;5092587;28;20449;-44
2023/06/04 08:15:05;;;;;;;11.05;3.55;;;;;;;37.35;46.26;98599.47;5092543;28;20024;-45
2023/06/04 08:17:31;;;;;;;7.55;2.90;;;;;;;37.57;45.92;98592.94;5092416;28;20016;-44
2023/06/04 08:19:57;;;;;;;8.63;3.47;;;;;;;37.50;45.86;98598.34;5070871;28;20451;-44
2023/06/04 08:22:22;;;;;;;7.28;3.00;;;;;;;37.74;45.21;98598.91;5090944;28;20027;-47
2023/06/04 08:24:48;;;;;;;12.07;4.40;;;;;;;37.65;45.80;98595.72;5070805;28;20033;-47
2023/06/04 08:27:14;;;;;;;7.03;3.53;;;;;;;37.42;46.18;98585.81;5089704;28;20033;-47
2023/06/04 08:29:40;;;;;;;8.35;3.60;;;;;;;37.36;44.99;98593.59;5070749;28;20055;-47
2023/06/04 08:32:07;;;;;;;6.20;3.10;;;;;;;36.98;45.85;98592.13;5089663;28;20024;-47
2023/06/04 08:34:33;;;;;;;9.00;3.13;;;;;;;36.84;46.27;98590.06;5092259;28;20355;-47
2023/06/04 08:36:58;;;;;;;7.43;3.08;;;;;;;36.20;46.75;98592.97;5070415;28;20028;-47
2023/06/04 08:39:24;;;;;;;9.85;3.47;;;;;;;35.70;47.09;98604.09;5107857;28;20049;-44
2023/06/04 08:41:54;;;;;;;10.32;3.80;;;;;;;35.85;48.44;98596.06;5107644;28;20073;-44
2023/06/04 08:44:20;;;;;;;5.80;3.00;;;;;;;36.14;48.10;98597.16;5112472;28;20092;-44
2023/06/04 08:46:50;;;;;;;10.07;3.42;;;;;;;35.93;47.20;98597.72;5112273;28;20053;-44
2023/06/04 08:49:18;;;;;;;6.43;3.47;;;;;;;35.93;48.54;98593.03;5112417;28;20088;-44
2023/06/04 08:51:44;;;;;;;8.88;3.58;;;;;;;36.09;47.43;98590.09;5112353;28;20047;-44
2023/06/04 08:54:11;;;;;;;10.50;4.05;;;;;;;36.04;48.68;98593.19;5094042;28;20485;-44
2023/06/04 08:56:37;;;;;;;12.73;4.32;;;;;;;36.24;48.65;98593.81;5112198;28;20378;-44
2023/06/04 08:59:06;;;;;;;7.45;3.80;;;;;;;36.69;48.01;98589.19;5093927;28;20031;-44
2023/06/04 09:01:33;;;;;;;4.85;3.30;;;;;;;37.87;46.13;98586.44;5112195;28;20016;-47
2023/06/04 09:04:04;;;;;;;8.10;4.20;;;;;;;38.71;40.46;98591.72;5112218;28;20095;-47
2023/06/04 09:06:32;;;;;;;6.95;3.92;;;;;;;40.29;38.88;98588.56;5094221;28;20027;-47
2023/06/04 09:09:03;;;;;;;9.25;3.42;;;;;;;41.04;36.99;98581.69;5112154;28;20099;-49
2023/06/04 09:11:39;;;;;;;10.32;4.20;;;;;;;41.35;35.79;98573.53;5112115;28;20062;-49
2023/06/04 09:14:08;;;;;;;7.18;3.30;;;;;;;42.19;34.60;98582.38;5112199;28;20042;-49
2023/06/04 09:16:51;;;;;;;6.82;3.65;;;;;;;42.87;31.34;98584.09;5111983;28;20015;-49
2023/06/04 09:19:18;;;;;;;6.80;3.60;;;;;;;42.69;32.19;98590.66;5077093;28;20032;-49
2023/06/04 09:21:56;;;;;;;7.50;3.47;;;;;;;42.44;30.91;98587.53;5112014;28;20030;-49
2023/06/04 09:24:23;;;;;;;5.90;4.00;;;;;;;41.85;30.70;98585.94;5114852;28;20118;-49
2023/06/04 09:26:50;;;;;;;8.18;3.42;;;;;;;41.71;31.03;98593.19;5116209;28;20068;-49
2023/06/04 09:29:16;;;;;;;4.38;3.50;;;;;;;41.78;28.40;98581.31;5116143;28;20026;-49
2023/06/04 09:31:47;;;;;;;16.27;5.03;;;;;;;41.88;26.96;98579.63;5116066;28;20024;-49
2023/06/04 09:34:13;;;;;;;5.90;4.07;;;;;;;42.26;26.16;98572.00;5116280;28;20118;-49
2023/06/04 09:36:39;;;;;;;12.25;4.22;;;;;;;42.64;23.67;98569.06;5079703;28;20123;-49
2023/06/04 09:39:17;;;;;;;7.63;4.10;;;;;;;42.01;23.71;98572.34;5095527;28;20052;-49
2023/06/04 09:41:43;;;;;;;6.95;3.80;;;;;;;41.86;23.23;98571.00;5095366;28;20020;-49
2023/06/04 09:44:11;;;;;;;10.27;4.28;;;;;;;40.88;23.87;98575.97;5095453;28;20393;-49
2023/06/04 09:46:37;;;;;;;10.25;4.05;;;;;;;40.57;24.11;98573.06;5095383;28;20066;-49
2023/06/04 09:49:05;;;;;;;8.88;3.92;;;;;;;40.82;23.82;98572.09;5077332;28;20107;-49
2023/06/04 09:51:31;;;;;;;6.78;3.95;;;;;;;40.45;23.36;98568.06;5095274;28;20019;-48
2023/06/04 09:54:02;;;;;;;6.20;3.97;;;;;;;40.64;23.44;98573.00;5095216;28;20056;-49
2023/06/04 09:56:28;;;;;;;7.75;4.35;;;;;;;40.96;23.54;98571.19;5095082;28;20483;-49
2023/06/04 09:59:01;;;;;;;4.95;4.00;;;;;;;41.27;22.70;98570.09;5077085;28;20055;-49
2023/06/04 10:01:29;;;;;;;5.78;3.67;;;;;;;41.49;22.37;98575.34;5095210;28;20028;-49
2023/06/04 10:03:58;;;;;;;5.55;3.95;;;;;;;41.18;22.37;98574.53;5095061;28;20044;-49
2023/06/04 10:06:26;;;;;;;7.07;4.00;;;;;;;39.38;23.98;98567.31;5094939;28;20051;-49
2023/06/04 10:08:56;;;;;;;12.85;4.82;;;;;;;37.43;26.03;98567.41;5094948;28;20432;-49
2023/06/04 10:11:26;;;;;;;5.25;4.10;;;;;;;35.71;27.99;98577.56;5094906;28;20085;-48
2023/06/04 10:13:54;;;;;;;6.40;4.63;;;;;;;35.18;29.08;98581.91;5094900;28;20124;-46
2023/06/04 10:16:21;;;;;;;10.75;4.30;;;;;;;36.05;27.83;98566.63;5076491;28;20032;-46
2023/06/04 10:18:47;;;;;;;7.40;3.85;;;;;;;36.14;27.79;98565.19;5076529;28;20055;-46
2023/06/04 10:21:18;;;;;;;7.40;3.80;;;;;;;36.59;27.18;98557.03;5094747;28;20461;-46
2023/06/04 10:23:45;;;;;;;7.78;4.25;;;;;;;37.76;25.73;98561.72;5094702;28;20059;-49
2023/06/04 10:26:14;;;;;;;6.20;3.38;;;;;;;38.95;24.21;98553.69;5094921;28;20039;-49
2023/06/04 10:28:41;;;;;;;11.10;4.20;;;;;;;39.86;23.35;98542.06;5094545;28;20023;-49
2023/06/04 10:31:12;;;;;;;8.18;3.75;;;;;;;40.66;22.31;98548.59;5094409;28;20031;-49
2023/06/04 10:33:40;;;;;;;9.27;4.20;;;;;;;40.95;21.78;98540.09;5094543;28;20090;-49
2023/06/04 10:36:19;;;;;;;14.07;4.53;;;;;;;41.73;21.01;98540.44;5103383;28;20471;-49
2023/06/04 10:38:49;;;;;;;6.57;3.35;;;;;;;42.35;20.18;98545.88;5114738;28;20073;-49
2023/06/04 10:41:16;;;;;;;5.18;3.50;;;;;;;42.52;19.62;98539.28;5114730;28;20035;-49
2023/06/04 10:43:46;;;;;;;7.82;3.05;;;;;;;42.47;19.96;98537.03;5114770;28;20024;-50
2023/06/04 10:46:16;;;;;;;9.40;3.30;;;;;;;42.70;19.69;98531.50;5079988;28;20024;-49
2023/06/04 10:48:53;;;;;;;8.82;3.25;;;;;;;43.07;19.40;98526.13;5096471;28;20050;-49
2023/06/04 10:51:33;;;;;;;7.75;3.30;;;;;;;43.23;19.32;98520.69;5114520;28;20028;-50
2023/06/04 10:54:00;;;;;;;11.25;4.43;;;;;;;43.09;18.80;98516.22;5114778;28;20028;-50
2023/06/04 10:56:33;;;;;;;9.70;3.75;;;;;;;42.90;18.98;98514.22;5114403;28;20035;-50
2023/06/04 10:59:00;;;;;;;8.50;2.90;;;;;;;42.78;19.24;98518.34;5114462;28;20107;-49
2023/06/04 11:01:28;;;;;;;4.00;2.80;;;;;;;43.15;18.65;98510.22;5114315;28;20028;-49
2023/06/04 11:03:55;;;;;;;2.70;2.42;;;;;;;43.22;18.51;98515.56;5114570;28;20489;-49
2023/06/04 11:06:22;;;;;;;7.57;3.50;;;;;;;42.99;19.20;98513.66;5096199;28;20035;-49
2023/06/04 11:08:48;;;;;;;5.18;3.00;;;;;;;42.64;19.59;98511.13;5096232;28;20042;-49
2023/06/04 11:11:15;;;;;;;6.78;3.50;;;;;;;42.04;19.67;98515.63;5114201;28;20138;-49
2023/06/04 11:13:42;;;;;;;4.47;3.13;;;;;;;41.79;20.18;98510.44;5114198;28;20027;-49
2023/06/04 11:16:15;;;;;;;6.78;3.17;;;;;;;41.63;20.21;98511.03;5114057;28;20089;-49
2023/06/04 11:18:41;;;;;;;;;;;;;;;41.70;20.70;98508.97;5079643;28;20024;-49
2023/06/04 11:21:07;;;;;;;7.18;3.25;;;;;;;41.71;20.21;98510.53;5095718;28;19914;-49
2023/06/04 11:23:33;;;;;;;13.65;4.50;;;;;;;41.99;20.00;98507.78;5114296;28;20102;-49
2023/06/04 11:25:59;;;;;;;15.27;3.97;;;;;;;41.83;20.04;98505.66;5114246;28;20020;-49
2023/06/04 11:28:25;;;;;;;12.05;3.78;;;;;;;41.66;20.02;98502.72;5095560;28;20028;-49